createdAt,value
2019-06-10T00:02:27.104Z,15.80
2019-06-10T00:05:00.277Z,15.80
2019-06-10T00:07:28.397Z,15.80
2019-06-10T00:09:58.799Z,15.80
2019-06-10T00:12:27.721Z,15.80
2019-06-10T00:14:56.669Z,15.80
2019-06-10T00:17:25.580Z,15.80
2019-06-10T00:19:55.411Z,15.70
2019-06-10T00:22:23.800Z,15.70
2019-06-10T00:24:52.858Z,15.70
2019-06-10T00:27:21.582Z,15.60
2019-06-10T00:29:51.298Z,15.60
2019-06-10T00:32:21.463Z,15.60
2019-06-10T00:34:50.851Z,15.60
2019-06-10T00:37:21.132Z,15.50
2019-06-10T00:39:51.162Z,15.50
2019-06-10T00:42:21.332Z,15.50
2019-06-10T00:44:50.897Z,15.50
2019-06-10T00:47:21.113Z,15.50
2019-06-10T00:49:51.295Z,15.50
2019-06-10T00:52:21.307Z,15.50
2019-06-10T00:54:51.719Z,15.50
2019-06-10T00:57:20.884Z,15.40
2019-06-10T00:59:50.780Z,15.40
2019-06-10T01:02:21.212Z,15.40
2019-06-10T01:04:51.246Z,15.40
2019-06-10T01:07:18.498Z,15.40
2019-06-10T01:09:46.638Z,15.40
2019-06-10T01:12:14.955Z,15.40
2019-06-10T01:14:43.090Z,15.40
2019-06-10T01:17:13.736Z,15.40
2019-06-10T01:19:41.583Z,15.40
2019-06-10T01:22:11.092Z,15.40
2019-06-10T01:24:40.787Z,15.40
2019-06-10T01:27:11.901Z,15.30
2019-06-10T01:29:41.490Z,15.40
2019-06-10T01:32:09.759Z,15.40
2019-06-10T01:34:37.960Z,15.40
2019-06-10T01:37:06.786Z,15.30
2019-06-10T01:39:37.623Z,15.30
2019-06-10T01:42:06.206Z,15.30
2019-06-10T01:44:37.022Z,15.20
2019-06-10T01:47:04.750Z,15.20
2019-06-10T01:49:35.970Z,15.30
2019-06-10T01:52:03.669Z,15.30
2019-06-10T01:54:31.862Z,15.20
2019-06-10T01:57:01.472Z,15.20
2019-06-10T01:59:30.961Z,15.20
2019-06-10T02:02:05.047Z,15.20
2019-06-10T02:04:32.850Z,15.20
2019-06-10T02:07:01.404Z,15.30
2019-06-10T02:09:30.996Z,15.30
2019-06-10T02:12:02.280Z,15.30
2019-06-10T02:14:31.817Z,15.30
2019-06-10T02:17:01.234Z,15.30
2019-06-10T02:19:31.151Z,15.20
2019-06-10T02:22:01.918Z,15.30
2019-06-10T02:24:31.558Z,15.20
2019-06-10T02:27:01.042Z,15.20
2019-06-10T02:29:30.802Z,15.20
2019-06-10T02:32:28.612Z,15.20
2019-06-10T02:35:06.967Z,15.20
2019-06-10T02:37:25.573Z,15.20
2019-06-10T02:39:54.062Z,15.20
2019-06-10T02:42:30.433Z,15.20
2019-06-10T02:44:58.757Z,15.20
2019-06-10T02:47:36.245Z,15.20
2019-06-10T02:50:07.891Z,15.10
2019-06-10T02:52:38.114Z,15.10
2019-06-10T02:55:04.168Z,15.10
2019-06-10T02:57:39.005Z,15.10
2019-06-10T03:00:06.588Z,15.10
2019-06-10T03:02:36.201Z,15.10
2019-06-10T03:05:04.612Z,15.10
2019-06-10T03:07:35.400Z,15.10
2019-06-10T03:10:04.764Z,15.10
2019-06-10T03:12:33.213Z,15.10
2019-06-10T03:15:02.089Z,15.10
2019-06-10T03:17:32.339Z,15.10
2019-06-10T03:20:02.327Z,15.10
2019-06-10T03:22:32.642Z,15.10
2019-06-10T03:25:02.945Z,15.00
2019-06-10T03:27:32.874Z,15.00
2019-06-10T03:30:04.732Z,15.00
2019-06-10T03:32:40.567Z,15.00
2019-06-10T03:35:07.040Z,15.00
2019-06-10T03:37:35.195Z,15.00
2019-06-10T03:40:03.227Z,14.90
2019-06-10T03:42:32.473Z,14.90
2019-06-10T03:45:03.168Z,14.90
2019-06-10T03:47:32.489Z,14.90
2019-06-10T03:50:03.641Z,14.90
2019-06-10T05:03:28.092Z,14.60
2019-06-10T05:05:56.966Z,14.60
2019-06-10T05:08:26.919Z,14.50
2019-06-10T05:10:56.103Z,14.50
2019-06-10T05:13:27.051Z,14.50
2019-06-10T05:16:12.265Z,14.50
2019-06-10T05:18:42.328Z,14.50
2019-06-10T05:21:14.891Z,14.50
2019-06-10T05:23:45.984Z,14.40
2019-06-10T05:26:14.015Z,14.50
2019-06-10T05:28:43.517Z,14.50
2019-06-10T05:31:12.889Z,14.50
2019-06-10T05:33:42.869Z,14.50
2019-06-10T05:36:34.624Z,14.50
2019-06-10T05:39:07.166Z,14.50
2019-06-10T05:41:39.049Z,14.60
2019-06-10T05:50:42.650Z,14.60
2019-06-10T05:53:25.033Z,14.60
2019-06-10T05:56:12.630Z,14.60
2019-06-10T05:58:57.419Z,14.60
2019-06-10T06:04:57.376Z,14.50
2019-06-10T06:07:29.155Z,14.50
2019-06-10T06:10:07.931Z,14.60
2019-06-10T06:12:44.500Z,14.60
2019-06-10T06:15:13.075Z,14.60
2019-06-10T06:18:04.053Z,14.60
2019-06-10T06:20:27.432Z,14.60
2019-06-10T06:22:58.927Z,14.60
2019-06-10T06:25:42.246Z,14.60
2019-06-10T06:28:22.971Z,14.70
2019-06-10T06:31:05.651Z,14.70
2019-06-10T06:47:06.802Z,14.80
2019-06-10T06:49:23.080Z,14.80
2019-06-10T06:56:03.545Z,14.90
2019-06-10T06:58:33.490Z,14.90
2019-06-10T07:01:10.989Z,14.90
2019-06-10T07:03:53.762Z,14.90
2019-06-10T07:06:47.681Z,14.90
2019-06-10T07:09:24.143Z,14.90
2019-06-10T07:12:23.056Z,14.80
2019-06-10T07:18:23.115Z,14.60
2019-06-10T07:22:09.477Z,14.60
2019-06-10T07:24:37.880Z,14.60
2019-06-10T07:27:13.113Z,14.70
2019-06-10T07:30:11.736Z,14.70
2019-06-10T07:36:04.944Z,14.70
2019-06-10T07:39:34.978Z,14.80
2019-06-10T07:45:53.307Z,14.90
2019-06-10T07:47:53.106Z,14.90
2019-06-10T07:51:04.283Z,15.00
2019-06-10T07:53:36.668Z,15.10
2019-06-10T07:56:19.121Z,15.20
2019-06-10T07:59:19.799Z,15.40
2019-06-10T08:05:34.163Z,15.70
2019-06-10T08:08:45.026Z,15.80
2019-06-10T08:15:12.405Z,15.90
2019-06-10T08:18:51.019Z,15.90
2019-06-10T08:28:22.992Z,15.90
2019-06-10T08:31:43.540Z,16.00
2019-06-10T08:44:14.941Z,16.10
2019-06-10T08:50:33.624Z,16.30
2019-06-10T09:05:32.814Z,17.00
2019-06-10T09:11:54.667Z,17.50
2019-06-10T09:19:13.239Z,18.00
2019-06-10T09:22:29.167Z,18.90
2019-06-10T09:28:56.676Z,19.60
2019-06-10T10:24:07.001Z,21.60
2019-06-10T10:42:45.378Z,23.40
2019-06-10T10:48:13.712Z,23.50
2019-06-10T10:54:22.475Z,23.70
2019-06-10T11:00:16.523Z,23.60
2019-06-10T11:06:26.188Z,23.60
2019-06-10T11:09:57.660Z,24.00
2019-06-10T11:12:36.783Z,24.20
2019-06-10T11:15:20.054Z,24.30
2019-06-10T11:17:55.108Z,24.30
2019-06-10T11:21:02.494Z,24.30
2019-06-10T11:23:33.400Z,24.30
2019-06-10T11:26:02.709Z,24.60
2019-06-10T11:29:07.791Z,24.80
2019-06-10T11:31:27.117Z,25.00
2019-06-10T11:34:09.083Z,24.90
2019-06-10T11:37:12.150Z,25.00
2019-06-10T11:40:08.568Z,25.00
2019-06-10T11:46:39.049Z,25.10
2019-06-10T11:55:05.569Z,25.20
2019-06-10T11:57:58.168Z,25.10
2019-06-10T12:04:29.933Z,25.40
2019-06-10T12:07:12.911Z,25.30
2019-06-10T12:10:15.689Z,25.30
2019-06-10T12:17:15.575Z,25.20
2019-06-10T12:19:13.968Z,25.60
2019-06-10T12:21:37.606Z,26.10
2019-06-10T12:24:23.125Z,26.20
2019-06-10T12:26:57.963Z,26.30
2019-06-10T12:29:28.277Z,26.80
2019-06-10T12:32:06.953Z,26.80
2019-06-10T12:35:05.049Z,26.70
2019-06-10T12:37:36.462Z,26.70
2019-06-10T12:40:27.497Z,26.60
2019-06-10T12:43:07.145Z,26.30
2019-06-10T12:47:24.693Z,25.70
2019-06-10T12:48:18.508Z,25.50
2019-06-10T12:50:49.871Z,25.30
2019-06-10T12:53:17.851Z,24.90
2019-06-10T12:55:57.334Z,24.80
2019-06-10T12:58:16.306Z,24.50
2019-06-10T13:00:53.995Z,24.40
2019-06-10T13:03:59.483Z,24.50
2019-06-10T13:07:07.613Z,24.60
2019-06-10T13:09:38.601Z,24.80
2019-06-10T13:12:08.239Z,24.90
2019-06-10T13:14:58.454Z,25.30
2019-06-10T13:17:43.988Z,25.90
2019-06-10T13:23:20.314Z,26.00
2019-06-10T13:26:36.248Z,26.30
2019-06-10T13:32:43.450Z,26.20
2019-06-10T13:35:12.867Z,26.20
2019-06-10T13:37:52.189Z,26.00
2019-06-10T13:41:04.249Z,26.10
2019-06-10T13:43:48.004Z,26.40
2019-06-10T13:46:42.380Z,26.40
2019-06-10T13:50:07.783Z,26.00
2019-06-10T13:52:11.566Z,26.00
2019-06-10T13:54:36.969Z,26.00
2019-06-10T13:57:13.815Z,26.30
2019-06-10T14:02:57.112Z,26.70
2019-06-10T14:05:34.356Z,26.80
2019-06-10T14:08:08.899Z,26.90
2019-06-10T14:10:54.065Z,26.80
2019-06-10T14:13:28.804Z,26.80
2019-06-10T14:16:17.491Z,26.70
2019-06-10T14:18:42.608Z,26.40
2019-06-10T14:21:27.239Z,26.20
2019-06-10T14:23:55.751Z,26.10
2019-06-10T14:26:42.025Z,26.30
2019-06-10T14:29:17.011Z,26.30
2019-06-10T14:31:47.732Z,26.20
2019-06-10T14:34:42.088Z,26.30
2019-06-10T14:37:16.892Z,26.20
2019-06-10T14:39:47.575Z,26.10
2019-06-10T14:42:46.007Z,26.10
2019-06-10T14:45:20.396Z,26.50
2019-06-10T14:47:58.497Z,26.40
2019-06-10T14:50:34.230Z,26.30
2019-06-10T14:56:19.875Z,26.00
2019-06-10T14:58:42.453Z,26.00
2019-06-10T15:01:25.403Z,26.00
2019-06-10T15:04:36.138Z,26.00
2019-06-10T15:07:02.877Z,26.30
2019-06-10T15:09:33.447Z,26.70
2019-06-10T15:12:22.796Z,26.50
2019-06-10T15:14:52.017Z,26.00
2019-06-10T15:18:16.583Z,25.50
2019-06-10T15:20:42.876Z,25.20
2019-06-10T15:23:18.655Z,25.70
2019-06-10T15:30:11.648Z,26.30
2019-06-10T15:32:05.977Z,26.20
2019-06-10T15:34:32.579Z,26.10
2019-06-10T15:37:17.130Z,26.00
2019-06-10T15:40:14.013Z,25.80
2019-06-10T15:43:00.037Z,25.80
2019-06-10T15:45:59.085Z,25.80
2019-06-10T15:49:04.097Z,25.30
2019-06-10T15:52:48.378Z,25.00
2019-06-10T15:54:58.581Z,25.00
2019-06-10T15:57:40.656Z,24.70
2019-06-10T16:03:39.196Z,24.60
2019-06-10T16:06:13.912Z,24.50
2019-06-10T16:08:52.370Z,24.30
2019-06-10T16:11:47.929Z,24.20
2019-06-10T16:14:18.687Z,24.00
2019-06-10T16:17:23.983Z,23.90
2019-06-10T16:19:59.180Z,23.80
2019-06-10T16:22:55.411Z,23.60
2019-06-10T16:28:28.398Z,23.30
2019-06-10T16:31:24.797Z,23.20
2019-06-10T16:34:12.756Z,23.10
2019-06-10T16:36:32.086Z,23.00
2019-06-10T16:39:05.248Z,22.90
2019-06-10T16:41:33.338Z,22.80
2019-06-10T16:44:04.637Z,22.80
2019-06-10T16:46:36.094Z,22.70
2019-06-10T16:50:04.410Z,22.60
2019-06-10T17:05:43.991Z,22.60
2019-06-10T17:09:07.281Z,22.60
2019-06-10T17:11:38.430Z,22.70
2019-06-10T17:17:44.647Z,22.80
2019-06-10T17:20:44.264Z,22.70
2019-06-10T17:23:48.700Z,22.60
2019-06-10T17:26:56.723Z,22.50
2019-06-10T17:30:02.687Z,22.40
2019-06-10T17:32:42.639Z,22.10
2019-06-10T17:35:47.014Z,21.90
2019-06-10T17:41:25.831Z,21.40
2019-06-10T17:47:23.522Z,20.80
2019-06-10T17:53:28.195Z,20.20
2019-06-10T17:56:15.085Z,20.00
2019-06-10T17:58:56.981Z,19.90
2019-06-10T18:01:40.163Z,19.90
2019-06-10T18:04:08.196Z,19.90
2019-06-10T18:07:02.229Z,19.80
2019-06-10T18:12:52.774Z,19.70
2019-06-10T18:15:23.759Z,19.70
2019-06-10T18:17:52.465Z,19.50
2019-06-10T18:20:22.768Z,19.50
2019-06-10T18:26:26.884Z,19.40
2019-06-10T18:29:09.389Z,19.30
2019-06-10T18:31:42.549Z,19.20
2019-06-10T18:34:45.626Z,19.10
2019-06-10T18:37:26.556Z,19.10
2019-06-10T18:40:03.702Z,19.00
2019-06-10T18:42:39.000Z,19.00
2019-06-10T18:45:35.980Z,18.90
2019-06-10T18:48:35.495Z,18.80
2019-06-10T19:01:08.752Z,18.70
2019-06-10T19:03:43.890Z,18.60
2019-06-10T19:09:03.260Z,18.60
2019-06-10T19:15:26.773Z,18.50
2019-06-10T19:17:58.921Z,18.50
2019-06-10T19:20:36.954Z,18.40
2019-06-10T19:23:06.178Z,18.40
2019-06-10T19:25:46.232Z,18.30
2019-06-10T19:28:30.571Z,18.30
2019-06-10T19:31:52.646Z,18.30
2019-06-10T19:34:26.985Z,18.20
2019-06-10T19:37:15.342Z,18.20
2019-06-10T19:39:54.494Z,18.10
2019-06-10T19:42:25.702Z,18.10
2019-06-10T19:44:54.753Z,18.00
2019-06-10T19:47:24.790Z,18.00
2019-06-10T19:50:34.861Z,18.00
2019-06-10T19:53:53.354Z,17.90
2019-06-10T19:56:27.384Z,17.90
2019-06-10T20:06:13.667Z,17.80
2019-06-10T20:08:52.769Z,17.80
2019-06-10T20:15:39.495Z,17.70
2019-06-10T20:18:25.086Z,17.70
2019-06-10T20:47:13.988Z,17.50
2019-06-10T20:53:45.878Z,17.40
2019-06-10T20:56:23.607Z,17.30
2019-06-10T21:06:09.223Z,17.30
2019-06-10T21:18:47.116Z,17.30
2019-06-10T21:21:29.285Z,17.20
2019-06-10T21:24:18.094Z,17.20
2019-06-10T21:30:36.701Z,17.20
2019-06-10T21:32:06.687Z,17.30
2019-06-10T21:34:43.130Z,17.30
2019-06-10T21:37:42.541Z,17.30
2019-06-10T21:40:53.896Z,17.30
2019-06-10T21:43:35.422Z,17.20
2019-06-10T21:46:05.071Z,17.20
2019-06-10T21:48:50.556Z,17.20
2019-06-10T21:52:15.695Z,17.20
2019-06-10T21:58:22.466Z,17.10
2019-06-10T22:01:12.474Z,17.10
2019-06-10T22:03:39.741Z,17.10
2019-06-10T22:12:19.720Z,17.00
2019-06-10T22:15:25.388Z,17.10
2019-06-10T22:17:55.651Z,17.10
2019-06-10T22:20:26.981Z,17.10
2019-06-10T22:23:02.788Z,17.10
2019-06-10T22:25:32.879Z,17.10
2019-06-10T22:28:02.708Z,17.10
2019-06-10T22:30:32.110Z,17.00
2019-06-10T22:33:03.976Z,17.00
2019-06-10T22:35:34.163Z,17.00
2019-06-10T22:38:27.603Z,17.00
2019-06-10T22:40:50.956Z,16.90
2019-06-10T22:43:18.555Z,16.80
2019-06-10T22:45:49.537Z,16.90
2019-06-10T22:48:27.241Z,16.80
2019-06-10T22:57:22.239Z,16.70
2019-06-10T23:32:49.922Z,16.30
2019-06-10T23:58:25.250Z,16.20
